sensor_id;sensor_type;location;lat;lon;timestamp;P1;durP1;ratioP1;P2;durP2;ratioP2
45686;SDS011;31399;51.176;7.776;2022-07-10T00:01:48;8.38;;;0.90;;
45686;SDS011;31399;51.176;7.776;2022-07-10T00:04:15;5.40;;;0.50;;
45686;SDS011;31399;51.176;7.776;2022-07-10T00:06:42;3.67;;;0.70;;
45686;SDS011;31399;51.176;7.776;2022-07-10T00:09:13;5.03;;;0.50;;
45686;SDS011;31399;51.176;7.776;2022-07-10T00:11:40;5.38;;;0.60;;
45686;SDS011;31399;51.176;7.776;2022-07-10T00:14:07;3.90;;;0.52;;
45686;SDS011;31399;51.176;7.776;2022-07-10T00:16:34;3.00;;;0.73;;
45686;SDS011;31399;51.176;7.776;2022-07-10T00:19:01;0.95;;;0.43;;
45686;SDS011;31399;51.176;7.776;2022-07-10T00:21:28;1.45;;;0.50;;
45686;SDS011;31399;51.176;7.776;2022-07-10T00:23:54;4.50;;;0.40;;
45686;SDS011;31399;51.176;7.776;2022-07-10T00:26:21;1.30;;;0.50;;
45686;SDS011;31399;51.176;7.776;2022-07-10T00:28:47;3.78;;;0.80;;
45686;SDS011;31399;51.176;7.776;2022-07-10T00:31:14;0.93;;;0.40;;
45686;SDS011;31399;51.176;7.776;2022-07-10T00:33:41;2.40;;;0.40;;
45686;SDS011;31399;51.176;7.776;2022-07-10T00:36:07;3.83;;;0.63;;
45686;SDS011;31399;51.176;7.776;2022-07-10T00:38:34;1.85;;;0.30;;
45686;SDS011;31399;51.176;7.776;2022-07-10T00:41:01;2.58;;;0.50;;
45686;SDS011;31399;51.176;7.776;2022-07-10T00:43:28;3.88;;;0.47;;
45686;SDS011;31399;51.176;7.776;2022-07-10T00:45:54;6.53;;;0.98;;
45686;SDS011;31399;51.176;7.776;2022-07-10T00:48:21;3.63;;;0.70;;
45686;SDS011;31399;51.176;7.776;2022-07-10T00:50:47;7.30;;;0.50;;
45686;SDS011;31399;51.176;7.776;2022-07-10T00:53:14;4.13;;;0.40;;
45686;SDS011;31399;51.176;7.776;2022-07-10T00:55:42;2.78;;;0.50;;
45686;SDS011;31399;51.176;7.776;2022-07-10T00:58:09;7.70;;;0.55;;
45686;SDS011;31399;51.176;7.776;2022-07-10T01:00:37;3.08;;;0.50;;
45686;SDS011;31399;51.176;7.776;2022-07-10T01:03:04;3.85;;;1.02;;
45686;SDS011;31399;51.176;7.776;2022-07-10T01:05:31;4.20;;;0.70;;
45686;SDS011;31399;51.176;7.776;2022-07-10T01:07:58;3.45;;;0.40;;
45686;SDS011;31399;51.176;7.776;2022-07-10T01:10:24;9.43;;;0.93;;
45686;SDS011;31399;51.176;7.776;2022-07-10T01:12:51;3.13;;;0.40;;
45686;SDS011;31399;51.176;7.776;2022-07-10T01:15:18;4.57;;;0.82;;
45686;SDS011;31399;51.176;7.776;2022-07-10T01:17:45;7.85;;;0.75;;
45686;SDS011;31399;51.176;7.776;2022-07-10T01:20:12;3.97;;;0.60;;
45686;SDS011;31399;51.176;7.776;2022-07-10T01:22:38;6.63;;;0.57;;
45686;SDS011;31399;51.176;7.776;2022-07-10T01:25:05;5.28;;;0.40;;
45686;SDS011;31399;51.176;7.776;2022-07-10T01:27:33;3.78;;;0.47;;
45686;SDS011;31399;51.176;7.776;2022-07-10T01:30:00;2.10;;;0.32;;
45686;SDS011;31399;51.176;7.776;2022-07-10T01:32:27;1.25;;;0.80;;
45686;SDS011;31399;51.176;7.776;2022-07-10T01:35:02;1.95;;;0.47;;
45686;SDS011;31399;51.176;7.776;2022-07-10T01:37:28;1.77;;;0.50;;
45686;SDS011;31399;51.176;7.776;2022-07-10T01:39:55;3.50;;;0.45;;
45686;SDS011;31399;51.176;7.776;2022-07-10T01:42:21;3.67;;;0.60;;
45686;SDS011;31399;51.176;7.776;2022-07-10T01:44:48;2.95;;;0.45;;
45686;SDS011;31399;51.176;7.776;2022-07-10T01:47:14;2.05;;;0.55;;
45686;SDS011;31399;51.176;7.776;2022-07-10T01:49:41;6.07;;;0.50;;
45686;SDS011;31399;51.176;7.776;2022-07-10T01:52:08;5.40;;;0.75;;
45686;SDS011;31399;51.176;7.776;2022-07-10T01:54:36;2.00;;;0.50;;
45686;SDS011;31399;51.176;7.776;2022-07-10T01:57:02;1.67;;;0.40;;
45686;SDS011;31399;51.176;7.776;2022-07-10T01:59:29;3.90;;;0.60;;
45686;SDS011;31399;51.176;7.776;2022-07-10T02:01:56;5.88;;;1.05;;
45686;SDS011;31399;51.176;7.776;2022-07-10T02:04:22;3.90;;;0.52;;
45686;SDS011;31399;51.176;7.776;2022-07-10T02:07:19;3.85;;;0.60;;
45686;SDS011;31399;51.176;7.776;2022-07-10T02:09:47;5.20;;;0.70;;
45686;SDS011;31399;51.176;7.776;2022-07-10T02:12:14;5.90;;;0.57;;
45686;SDS011;31399;51.176;7.776;2022-07-10T02:14:42;5.55;;;1.00;;
45686;SDS011;31399;51.176;7.776;2022-07-10T02:17:08;4.30;;;0.90;;
45686;SDS011;31399;51.176;7.776;2022-07-10T02:19:35;4.07;;;0.43;;
45686;SDS011;31399;51.176;7.776;2022-07-10T02:22:02;7.10;;;0.50;;
45686;SDS011;31399;51.176;7.776;2022-07-10T02:24:28;3.75;;;0.45;;
45686;SDS011;31399;51.176;7.776;2022-07-10T02:26:55;7.47;;;0.88;;
45686;SDS011;31399;51.176;7.776;2022-07-10T02:29:22;2.45;;;0.57;;
45686;SDS011;31399;51.176;7.776;2022-07-10T02:31:49;4.07;;;0.63;;
45686;SDS011;31399;51.176;7.776;2022-07-10T02:34:16;4.68;;;0.60;;
45686;SDS011;31399;51.176;7.776;2022-07-10T02:36:42;4.30;;;0.70;;
45686;SDS011;31399;51.176;7.776;2022-07-10T02:39:09;5.05;;;0.55;;
45686;SDS011;31399;51.176;7.776;2022-07-10T02:41:36;5.43;;;1.10;;
45686;SDS011;31399;51.176;7.776;2022-07-10T02:44:03;3.50;;;0.38;;
45686;SDS011;31399;51.176;7.776;2022-07-10T02:46:29;2.58;;;0.45;;
45686;SDS011;31399;51.176;7.776;2022-07-10T02:48:56;3.10;;;0.50;;
45686;SDS011;31399;51.176;7.776;2022-07-10T02:51:23;6.43;;;0.40;;
45686;SDS011;31399;51.176;7.776;2022-07-10T02:53:49;5.13;;;0.50;;
45686;SDS011;31399;51.176;7.776;2022-07-10T02:56:16;4.90;;;0.93;;
45686;SDS011;31399;51.176;7.776;2022-07-10T02:58:42;4.93;;;0.70;;
45686;SDS011;31399;51.176;7.776;2022-07-10T03:01:09;1.85;;;0.38;;
45686;SDS011;31399;51.176;7.776;2022-07-10T03:03:36;2.53;;;0.55;;
45686;SDS011;31399;51.176;7.776;2022-07-10T03:06:02;4.00;;;0.60;;
45686;SDS011;31399;51.176;7.776;2022-07-10T03:08:29;2.30;;;0.50;;
45686;SDS011;31399;51.176;7.776;2022-07-10T03:10:55;3.25;;;0.43;;
45686;SDS011;31399;51.176;7.776;2022-07-10T03:13:22;2.15;;;0.30;;
45686;SDS011;31399;51.176;7.776;2022-07-10T03:15:49;3.95;;;0.45;;
45686;SDS011;31399;51.176;7.776;2022-07-10T03:18:15;1.92;;;0.50;;
45686;SDS011;31399;51.176;7.776;2022-07-10T03:20:42;3.58;;;0.57;;
45686;SDS011;31399;51.176;7.776;2022-07-10T03:23:08;5.13;;;0.57;;
45686;SDS011;31399;51.176;7.776;2022-07-10T03:25:35;6.70;;;1.10;;
45686;SDS011;31399;51.176;7.776;2022-07-10T03:28:02;2.75;;;0.30;;
45686;SDS011;31399;51.176;7.776;2022-07-10T03:30:28;7.03;;;1.25;;
45686;SDS011;31399;51.176;7.776;2022-07-10T03:32:55;1.95;;;0.80;;
45686;SDS011;31399;51.176;7.776;2022-07-10T03:35:21;3.20;;;1.10;;
45686;SDS011;31399;51.176;7.776;2022-07-10T03:37:48;1.73;;;0.30;;
45686;SDS011;31399;51.176;7.776;2022-07-10T03:40:14;2.22;;;0.77;;
45686;SDS011;31399;51.176;7.776;2022-07-10T03:42:41;4.82;;;0.50;;
45686;SDS011;31399;51.176;7.776;2022-07-10T03:45:08;5.82;;;0.60;;
45686;SDS011;31399;51.176;7.776;2022-07-10T03:47:35;2.47;;;0.47;;
45686;SDS011;31399;51.176;7.776;2022-07-10T03:50:01;5.53;;;0.77;;
45686;SDS011;31399;51.176;7.776;2022-07-10T03:52:28;3.30;;;0.50;;
45686;SDS011;31399;51.176;7.776;2022-07-10T03:54:54;1.42;;;0.40;;
45686;SDS011;31399;51.176;7.776;2022-07-10T03:57:21;1.65;;;0.70;;
45686;SDS011;31399;51.176;7.776;2022-07-10T04:00:06;4.90;;;0.60;;
45686;SDS011;31399;51.176;7.776;2022-07-10T04:02:33;4.82;;;0.55;;
45686;SDS011;31399;51.176;7.776;2022-07-10T04:05:00;3.85;;;0.60;;
45686;SDS011;31399;51.176;7.776;2022-07-10T04:07:27;2.22;;;0.63;;
45686;SDS011;31399;51.176;7.776;2022-07-10T04:09:53;4.85;;;0.60;;
45686;SDS011;31399;51.176;7.776;2022-07-10T04:12:20;4.10;;;0.40;;
45686;SDS011;31399;51.176;7.776;2022-07-10T04:14:47;7.53;;;0.75;;
45686;SDS011;31399;51.176;7.776;2022-07-10T04:17:17;7.13;;;0.50;;
45686;SDS011;31399;51.176;7.776;2022-07-10T04:19:44;6.95;;;0.60;;
45686;SDS011;31399;51.176;7.776;2022-07-10T04:22:12;3.85;;;0.80;;
45686;SDS011;31399;51.176;7.776;2022-07-10T04:24:39;8.05;;;0.55;;
45686;SDS011;31399;51.176;7.776;2022-07-10T04:27:05;5.30;;;0.40;;
45686;SDS011;31399;51.176;7.776;2022-07-10T04:29:33;5.25;;;0.77;;
45686;SDS011;31399;51.176;7.776;2022-07-10T04:31:59;5.20;;;0.70;;
45686;SDS011;31399;51.176;7.776;2022-07-10T04:34:26;5.70;;;0.52;;
45686;SDS011;31399;51.176;7.776;2022-07-10T04:36:52;8.38;;;1.25;;
45686;SDS011;31399;51.176;7.776;2022-07-10T04:39:19;2.53;;;0.60;;
45686;SDS011;31399;51.176;7.776;2022-07-10T04:41:46;3.08;;;0.40;;
45686;SDS011;31399;51.176;7.776;2022-07-10T04:44:12;6.40;;;0.70;;
45686;SDS011;31399;51.176;7.776;2022-07-10T04:46:39;2.67;;;0.43;;
45686;SDS011;31399;51.176;7.776;2022-07-10T04:49:05;3.03;;;0.57;;
45686;SDS011;31399;51.176;7.776;2022-07-10T04:51:32;5.32;;;0.60;;
45686;SDS011;31399;51.176;7.776;2022-07-10T04:53:59;6.88;;;0.40;;
45686;SDS011;31399;51.176;7.776;2022-07-10T04:56:25;5.72;;;0.43;;
45686;SDS011;31399;51.176;7.776;2022-07-10T04:58:52;4.43;;;0.95;;
45686;SDS011;31399;51.176;7.776;2022-07-10T05:01:19;7.05;;;0.55;;
45686;SDS011;31399;51.176;7.776;2022-07-10T05:03:46;5.05;;;0.70;;
45686;SDS011;31399;51.176;7.776;2022-07-10T05:06:14;7.63;;;0.60;;
45686;SDS011;31399;51.176;7.776;2022-07-10T05:08:40;5.63;;;0.63;;
45686;SDS011;31399;51.176;7.776;2022-07-10T05:11:07;4.45;;;0.60;;
45686;SDS011;31399;51.176;7.776;2022-07-10T05:13:34;9.70;;;0.57;;
45686;SDS011;31399;51.176;7.776;2022-07-10T05:16:00;5.60;;;0.75;;
45686;SDS011;31399;51.176;7.776;2022-07-10T05:18:27;3.05;;;0.52;;
45686;SDS011;31399;51.176;7.776;2022-07-10T05:20:54;4.03;;;0.60;;
45686;SDS011;31399;51.176;7.776;2022-07-10T05:23:20;5.50;;;0.50;;
45686;SDS011;31399;51.176;7.776;2022-07-10T05:25:47;6.47;;;1.00;;
45686;SDS011;31399;51.176;7.776;2022-07-10T05:28:14;12.05;;;1.02;;
45686;SDS011;31399;51.176;7.776;2022-07-10T05:30:41;3.63;;;0.70;;
45686;SDS011;31399;51.176;7.776;2022-07-10T05:33:08;7.55;;;0.68;;
45686;SDS011;31399;51.176;7.776;2022-07-10T05:35:34;1.73;;;0.50;;
45686;SDS011;31399;51.176;7.776;2022-07-10T05:38:01;6.82;;;0.77;;
45686;SDS011;31399;51.176;7.776;2022-07-10T05:40:28;9.60;;;0.75;;
45686;SDS011;31399;51.176;7.776;2022-07-10T05:42:55;5.07;;;0.52;;
45686;SDS011;31399;51.176;7.776;2022-07-10T05:45:21;4.53;;;0.80;;
45686;SDS011;31399;51.176;7.776;2022-07-10T05:47:48;6.13;;;1.15;;
45686;SDS011;31399;51.176;7.776;2022-07-10T05:50:14;4.30;;;0.82;;
45686;SDS011;31399;51.176;7.776;2022-07-10T05:52:41;6.72;;;1.15;;
45686;SDS011;31399;51.176;7.776;2022-07-10T05:55:08;7.93;;;1.45;;
45686;SDS011;31399;51.176;7.776;2022-07-10T05:57:35;6.35;;;1.33;;
45686;SDS011;31399;51.176;7.776;2022-07-10T06:00:05;3.72;;;0.88;;
45686;SDS011;31399;51.176;7.776;2022-07-10T06:02:33;7.90;;;1.38;;
45686;SDS011;31399;51.176;7.776;2022-07-10T06:04:59;6.55;;;0.73;;
45686;SDS011;31399;51.176;7.776;2022-07-10T06:07:26;8.38;;;0.80;;
45686;SDS011;31399;51.176;7.776;2022-07-10T06:09:53;5.53;;;0.80;;
45686;SDS011;31399;51.176;7.776;2022-07-10T06:12:20;3.83;;;0.82;;
45686;SDS011;31399;51.176;7.776;2022-07-10T06:14:46;5.78;;;1.17;;
45686;SDS011;31399;51.176;7.776;2022-07-10T06:17:13;4.18;;;0.93;;
45686;SDS011;31399;51.176;7.776;2022-07-10T06:19:40;4.47;;;0.47;;
45686;SDS011;31399;51.176;7.776;2022-07-10T06:22:06;6.10;;;1.27;;
45686;SDS011;31399;51.176;7.776;2022-07-10T06:24:51;6.93;;;0.68;;
45686;SDS011;31399;51.176;7.776;2022-07-10T06:27:18;8.35;;;0.77;;
45686;SDS011;31399;51.176;7.776;2022-07-10T06:29:45;7.53;;;0.90;;
45686;SDS011;31399;51.176;7.776;2022-07-10T06:32:11;4.10;;;0.93;;
45686;SDS011;31399;51.176;7.776;2022-07-10T06:34:38;5.13;;;0.80;;
45686;SDS011;31399;51.176;7.776;2022-07-10T06:37:05;6.25;;;1.05;;
45686;SDS011;31399;51.176;7.776;2022-07-10T06:39:32;2.80;;;0.55;;
45686;SDS011;31399;51.176;7.776;2022-07-10T06:42:01;4.03;;;0.65;;
45686;SDS011;31399;51.176;7.776;2022-07-10T06:44:34;1.45;;;0.38;;
45686;SDS011;31399;51.176;7.776;2022-07-10T06:47:01;2.90;;;0.32;;
45686;SDS011;31399;51.176;7.776;2022-07-10T06:49:46;4.07;;;0.65;;
45686;SDS011;31399;51.176;7.776;2022-07-10T06:52:14;6.97;;;0.50;;
45686;SDS011;31399;51.176;7.776;2022-07-10T06:54:41;4.65;;;0.70;;
45686;SDS011;31399;51.176;7.776;2022-07-10T06:57:08;2.38;;;0.40;;
45686;SDS011;31399;51.176;7.776;2022-07-10T06:59:35;7.18;;;0.80;;
45686;SDS011;31399;51.176;7.776;2022-07-10T07:02:02;7.57;;;0.30;;
45686;SDS011;31399;51.176;7.776;2022-07-10T07:04:29;8.10;;;0.82;;
45686;SDS011;31399;51.176;7.776;2022-07-10T07:06:55;5.72;;;0.70;;
45686;SDS011;31399;51.176;7.776;2022-07-10T07:09:22;6.35;;;0.80;;
45686;SDS011;31399;51.176;7.776;2022-07-10T07:11:48;4.97;;;0.50;;
45686;SDS011;31399;51.176;7.776;2022-07-10T07:14:15;1.80;;;0.30;;
45686;SDS011;31399;51.176;7.776;2022-07-10T07:16:41;4.68;;;0.50;;
45686;SDS011;31399;51.176;7.776;2022-07-10T07:19:09;3.22;;;0.40;;
45686;SDS011;31399;51.176;7.776;2022-07-10T07:21:44;3.50;;;0.60;;
45686;SDS011;31399;51.176;7.776;2022-07-10T07:24:29;3.60;;;0.20;;
45686;SDS011;31399;51.176;7.776;2022-07-10T07:26:56;7.38;;;1.05;;
45686;SDS011;31399;51.176;7.776;2022-07-10T07:29:22;3.63;;;0.40;;
45686;SDS011;31399;51.176;7.776;2022-07-10T07:31:49;4.68;;;0.40;;
45686;SDS011;31399;51.176;7.776;2022-07-10T07:34:15;1.15;;;0.30;;
45686;SDS011;31399;51.176;7.776;2022-07-10T07:36:42;4.65;;;0.80;;
45686;SDS011;31399;51.176;7.776;2022-07-10T07:39:08;6.03;;;0.47;;
45686;SDS011;31399;51.176;7.776;2022-07-10T07:41:35;2.75;;;0.30;;
45686;SDS011;31399;51.176;7.776;2022-07-10T07:44:02;6.70;;;0.63;;
45686;SDS011;31399;51.176;7.776;2022-07-10T07:46:28;3.17;;;0.50;;
45686;SDS011;31399;51.176;7.776;2022-07-10T07:48:55;3.00;;;0.30;;
45686;SDS011;31399;51.176;7.776;2022-07-10T07:51:21;6.03;;;0.50;;
45686;SDS011;31399;51.176;7.776;2022-07-10T07:53:48;2.78;;;0.30;;
45686;SDS011;31399;51.176;7.776;2022-07-10T07:56:15;4.82;;;0.55;;
45686;SDS011;31399;51.176;7.776;2022-07-10T07:58:42;4.40;;;0.63;;
45686;SDS011;31399;51.176;7.776;2022-07-10T08:01:09;2.75;;;0.30;;
45686;SDS011;31399;51.176;7.776;2022-07-10T08:03:35;3.22;;;0.40;;
45686;SDS011;31399;51.176;7.776;2022-07-10T08:06:22;6.25;;;0.50;;
45686;SDS011;31399;51.176;7.776;2022-07-10T08:08:48;2.38;;;0.35;;
45686;SDS011;31399;51.176;7.776;2022-07-10T08:11:15;4.93;;;0.43;;
45686;SDS011;31399;51.176;7.776;2022-07-10T08:13:41;5.30;;;0.50;;
45686;SDS011;31399;51.176;7.776;2022-07-10T08:16:09;5.70;;;0.57;;
45686;SDS011;31399;51.176;7.776;2022-07-10T08:18:36;4.45;;;0.45;;
45686;SDS011;31399;51.176;7.776;2022-07-10T08:21:03;6.63;;;0.88;;
45686;SDS011;31399;51.176;7.776;2022-07-10T08:23:30;2.95;;;0.50;;
45686;SDS011;31399;51.176;7.776;2022-07-10T08:25:56;3.67;;;0.60;;
45686;SDS011;31399;51.176;7.776;2022-07-10T08:28:23;4.00;;;0.32;;
45686;SDS011;31399;51.176;7.776;2022-07-10T08:30:50;4.07;;;0.43;;
45686;SDS011;31399;51.176;7.776;2022-07-10T08:33:16;3.88;;;0.50;;
45686;SDS011;31399;51.176;7.776;2022-07-10T08:35:43;4.03;;;0.40;;
45686;SDS011;31399;51.176;7.776;2022-07-10T08:38:09;7.63;;;0.80;;
45686;SDS011;31399;51.176;7.776;2022-07-10T08:40:36;3.92;;;0.73;;
45686;SDS011;31399;51.176;7.776;2022-07-10T08:43:03;3.55;;;0.40;;
45686;SDS011;31399;51.176;7.776;2022-07-10T08:45:30;5.45;;;0.57;;
45686;SDS011;31399;51.176;7.776;2022-07-10T08:48:01;4.68;;;0.73;;
45686;SDS011;31399;51.176;7.776;2022-07-10T08:50:30;3.85;;;0.57;;
45686;SDS011;31399;51.176;7.776;2022-07-10T08:56:04;5.32;;;0.80;;
45686;SDS011;31399;51.176;7.776;2022-07-10T08:58:31;7.45;;;0.55;;
45686;SDS011;31399;51.176;7.776;2022-07-10T09:00:59;5.18;;;0.65;;
45686;SDS011;31399;51.176;7.776;2022-07-10T09:03:25;6.70;;;0.40;;
45686;SDS011;31399;51.176;7.776;2022-07-10T09:05:52;2.15;;;0.47;;
45686;SDS011;31399;51.176;7.776;2022-07-10T09:08:22;5.57;;;0.40;;
45686;SDS011;31399;51.176;7.776;2022-07-10T09:10:49;2.85;;;0.40;;
45686;SDS011;31399;51.176;7.776;2022-07-10T09:13:17;2.67;;;0.30;;
45686;SDS011;31399;51.176;7.776;2022-07-10T09:15:47;6.57;;;0.82;;
45686;SDS011;31399;51.176;7.776;2022-07-10T09:18:18;1.70;;;0.35;;
45686;SDS011;31399;51.176;7.776;2022-07-10T09:20:45;6.07;;;0.65;;
45686;SDS011;31399;51.176;7.776;2022-07-10T09:23:19;5.70;;;1.05;;
45686;SDS011;31399;51.176;7.776;2022-07-10T09:25:47;3.58;;;0.40;;
45686;SDS011;31399;51.176;7.776;2022-07-10T09:28:16;9.48;;;0.47;;
45686;SDS011;31399;51.176;7.776;2022-07-10T09:30:43;3.40;;;0.40;;
45686;SDS011;31399;51.176;7.776;2022-07-10T09:33:14;5.07;;;0.52;;
45686;SDS011;31399;51.176;7.776;2022-07-10T09:41:13;6.90;;;0.63;;
45686;SDS011;31399;51.176;7.776;2022-07-10T09:43:44;2.83;;;1.17;;
45686;SDS011;31399;51.176;7.776;2022-07-10T09:46:25;2.70;;;0.50;;
45686;SDS011;31399;51.176;7.776;2022-07-10T09:49:12;4.53;;;0.40;;
45686;SDS011;31399;51.176;7.776;2022-07-10T09:51:43;5.85;;;0.30;;
45686;SDS011;31399;51.176;7.776;2022-07-10T09:54:15;2.03;;;0.30;;
45686;SDS011;31399;51.176;7.776;2022-07-10T09:56:46;2.35;;;0.45;;
45686;SDS011;31399;51.176;7.776;2022-07-10T09:59:18;3.95;;;0.30;;
45686;SDS011;31399;51.176;7.776;2022-07-10T10:01:49;8.30;;;0.70;;
45686;SDS011;31399;51.176;7.776;2022-07-10T10:04:18;4.57;;;1.27;;
45686;SDS011;31399;51.176;7.776;2022-07-10T10:06:51;4.72;;;0.73;;
45686;SDS011;31399;51.176;7.776;2022-07-10T10:09:26;1.48;;;0.30;;
45686;SDS011;31399;51.176;7.776;2022-07-10T10:12:07;2.72;;;0.52;;
45686;SDS011;31399;51.176;7.776;2022-07-10T10:14:57;5.38;;;1.15;;
45686;SDS011;31399;51.176;7.776;2022-07-10T10:17:24;4.68;;;0.40;;
45686;SDS011;31399;51.176;7.776;2022-07-10T10:19:53;6.80;;;0.52;;
45686;SDS011;31399;51.176;7.776;2022-07-10T10:22:42;3.28;;;0.45;;
45686;SDS011;31399;51.176;7.776;2022-07-10T10:25:10;3.40;;;0.40;;
45686;SDS011;31399;51.176;7.776;2022-07-10T10:27:37;2.38;;;1.05;;
45686;SDS011;31399;51.176;7.776;2022-07-10T10:30:04;4.35;;;0.70;;
45686;SDS011;31399;51.176;7.776;2022-07-10T10:32:31;2.38;;;0.38;;
45686;SDS011;31399;51.176;7.776;2022-07-10T10:34:58;8.93;;;0.68;;
45686;SDS011;31399;51.176;7.776;2022-07-10T10:39:53;2.38;;;0.30;;
45686;SDS011;31399;51.176;7.776;2022-07-10T10:50:55;2.50;;;0.60;;
45686;SDS011;31399;51.176;7.776;2022-07-10T10:53:26;4.80;;;0.60;;
45686;SDS011;31399;51.176;7.776;2022-07-10T10:58:27;4.78;;;0.50;;
45686;SDS011;31399;51.176;7.776;2022-07-10T11:01:04;1.88;;;0.70;;
45686;SDS011;31399;51.176;7.776;2022-07-10T11:03:31;4.00;;;0.60;;
45686;SDS011;31399;51.176;7.776;2022-07-10T11:05:58;2.22;;;0.50;;
45686;SDS011;31399;51.176;7.776;2022-07-10T11:08:35;4.05;;;0.65;;
45686;SDS011;31399;51.176;7.776;2022-07-10T11:13:58;2.67;;;0.50;;
45686;SDS011;31399;51.176;7.776;2022-07-10T11:16:25;3.15;;;0.60;;
45686;SDS011;31399;51.176;7.776;2022-07-10T11:18:52;1.85;;;0.40;;
45686;SDS011;31399;51.176;7.776;2022-07-10T11:21:24;1.15;;;0.45;;
45686;SDS011;31399;51.176;7.776;2022-07-10T11:23:56;2.25;;;0.70;;
45686;SDS011;31399;51.176;7.776;2022-07-10T11:29:03;3.40;;;0.50;;
45686;SDS011;31399;51.176;7.776;2022-07-10T11:31:33;0.65;;;0.50;;
45686;SDS011;31399;51.176;7.776;2022-07-10T11:34:04;1.15;;;0.45;;
45686;SDS011;31399;51.176;7.776;2022-07-10T11:36:31;1.48;;;0.30;;
45686;SDS011;31399;51.176;7.776;2022-07-10T11:39:05;1.50;;;0.30;;
45686;SDS011;31399;51.176;7.776;2022-07-10T11:41:33;0.90;;;0.30;;
45686;SDS011;31399;51.176;7.776;2022-07-10T11:44:00;1.52;;;0.30;;
45686;SDS011;31399;51.176;7.776;2022-07-10T11:46:29;1.77;;;0.40;;
45686;SDS011;31399;51.176;7.776;2022-07-10T11:48:56;2.13;;;0.40;;
45686;SDS011;31399;51.176;7.776;2022-07-10T11:51:28;0.95;;;0.32;;
45686;SDS011;31399;51.176;7.776;2022-07-10T11:54:08;0.43;;;0.35;;
45686;SDS011;31399;51.176;7.776;2022-07-10T11:56:38;2.13;;;0.30;;
45686;SDS011;31399;51.176;7.776;2022-07-10T11:59:09;0.77;;;0.30;;
45686;SDS011;31399;51.176;7.776;2022-07-10T12:01:43;0.80;;;0.30;;
45686;SDS011;31399;51.176;7.776;2022-07-10T12:04:12;0.68;;;0.40;;
45686;SDS011;31399;51.176;7.776;2022-07-10T12:06:40;1.65;;;0.20;;
45686;SDS011;31399;51.176;7.776;2022-07-10T12:09:11;3.53;;;0.35;;
45686;SDS011;31399;51.176;7.776;2022-07-10T12:11:42;1.80;;;0.35;;
45686;SDS011;31399;51.176;7.776;2022-07-10T12:14:17;0.80;;;0.30;;
45686;SDS011;31399;51.176;7.776;2022-07-10T12:16:48;1.08;;;0.35;;
45686;SDS011;31399;51.176;7.776;2022-07-10T12:21:44;0.60;;;0.40;;
45686;SDS011;31399;51.176;7.776;2022-07-10T12:24:13;0.90;;;0.50;;
45686;SDS011;31399;51.176;7.776;2022-07-10T12:26:42;0.70;;;0.30;;
45686;SDS011;31399;51.176;7.776;2022-07-10T12:31:46;1.05;;;0.50;;
45686;SDS011;31399;51.176;7.776;2022-07-10T12:34:14;0.82;;;0.47;;
45686;SDS011;31399;51.176;7.776;2022-07-10T12:36:50;2.45;;;0.68;;
45686;SDS011;31399;51.176;7.776;2022-07-10T12:39:19;1.15;;;0.52;;
45686;SDS011;31399;51.176;7.776;2022-07-10T12:41:58;0.70;;;0.40;;
45686;SDS011;31399;51.176;7.776;2022-07-10T12:47:04;1.17;;;0.40;;
45686;SDS011;31399;51.176;7.776;2022-07-10T12:50:14;0.90;;;0.60;;
45686;SDS011;31399;51.176;7.776;2022-07-10T12:52:35;0.98;;;0.60;;
45686;SDS011;31399;51.176;7.776;2022-07-10T12:55:13;1.58;;;1.13;;
45686;SDS011;31399;51.176;7.776;2022-07-10T12:57:55;2.28;;;1.10;;
45686;SDS011;31399;51.176;7.776;2022-07-10T13:00:30;1.35;;;1.20;;
45686;SDS011;31399;51.176;7.776;2022-07-10T13:05:34;1.15;;;1.00;;
45686;SDS011;31399;51.176;7.776;2022-07-10T13:10:50;4.15;;;1.77;;
45686;SDS011;31399;51.176;7.776;2022-07-10T13:13:17;2.50;;;1.80;;
45686;SDS011;31399;51.176;7.776;2022-07-10T13:15:44;2.75;;;1.90;;
45686;SDS011;31399;51.176;7.776;2022-07-10T13:18:34;3.72;;;1.95;;
45686;SDS011;31399;51.176;7.776;2022-07-10T13:20:59;2.83;;;2.08;;
45686;SDS011;31399;51.176;7.776;2022-07-10T13:23:28;2.50;;;2.17;;
45686;SDS011;31399;51.176;7.776;2022-07-10T13:25:56;2.63;;;1.88;;
45686;SDS011;31399;51.176;7.776;2022-07-10T13:28:23;2.90;;;1.92;;
45686;SDS011;31399;51.176;7.776;2022-07-10T13:30:50;2.55;;;1.98;;
45686;SDS011;31399;51.176;7.776;2022-07-10T13:33:17;3.67;;;2.25;;
45686;SDS011;31399;51.176;7.776;2022-07-10T13:35:43;1.95;;;1.77;;
45686;SDS011;31399;51.176;7.776;2022-07-10T13:38:10;3.42;;;2.35;;
45686;SDS011;31399;51.176;7.776;2022-07-10T13:40:43;3.08;;;2.10;;
45686;SDS011;31399;51.176;7.776;2022-07-10T13:43:12;5.18;;;2.80;;
45686;SDS011;31399;51.176;7.776;2022-07-10T13:45:39;5.13;;;2.28;;
45686;SDS011;31399;51.176;7.776;2022-07-10T13:48:12;4.07;;;2.70;;
45686;SDS011;31399;51.176;7.776;2022-07-10T13:50:39;3.47;;;2.47;;
45686;SDS011;31399;51.176;7.776;2022-07-10T13:53:06;2.58;;;2.20;;
45686;SDS011;31399;51.176;7.776;2022-07-10T13:55:33;2.45;;;2.25;;
45686;SDS011;31399;51.176;7.776;2022-07-10T13:58:00;2.20;;;1.83;;
45686;SDS011;31399;51.176;7.776;2022-07-10T14:00:27;2.95;;;2.25;;
45686;SDS011;31399;51.176;7.776;2022-07-10T14:02:54;3.05;;;2.08;;
45686;SDS011;31399;51.176;7.776;2022-07-10T14:05:23;4.28;;;2.03;;
45686;SDS011;31399;51.176;7.776;2022-07-10T14:07:50;3.50;;;1.80;;
45686;SDS011;31399;51.176;7.776;2022-07-10T14:10:17;3.40;;;2.38;;
45686;SDS011;31399;51.176;7.776;2022-07-10T14:12:43;1.98;;;1.77;;
45686;SDS011;31399;51.176;7.776;2022-07-10T14:15:10;1.95;;;1.75;;
45686;SDS011;31399;51.176;7.776;2022-07-10T14:17:37;2.10;;;1.90;;
45686;SDS011;31399;51.176;7.776;2022-07-10T14:20:03;1.92;;;1.50;;
45686;SDS011;31399;51.176;7.776;2022-07-10T14:22:30;2.08;;;1.80;;
45686;SDS011;31399;51.176;7.776;2022-07-10T14:24:57;2.35;;;1.90;;
45686;SDS011;31399;51.176;7.776;2022-07-10T14:27:24;2.80;;;2.00;;
45686;SDS011;31399;51.176;7.776;2022-07-10T14:29:51;2.33;;;1.98;;
45686;SDS011;31399;51.176;7.776;2022-07-10T14:32:18;2.78;;;1.98;;
45686;SDS011;31399;51.176;7.776;2022-07-10T14:34:45;2.47;;;2.15;;
45686;SDS011;31399;51.176;7.776;2022-07-10T14:37:11;3.28;;;2.03;;
45686;SDS011;31399;51.176;7.776;2022-07-10T14:39:38;3.42;;;2.33;;
45686;SDS011;31399;51.176;7.776;2022-07-10T14:42:04;3.92;;;2.30;;
45686;SDS011;31399;51.176;7.776;2022-07-10T14:44:34;2.67;;;2.40;;
45686;SDS011;31399;51.176;7.776;2022-07-10T14:47:01;2.67;;;2.45;;
45686;SDS011;31399;51.176;7.776;2022-07-10T14:49:28;2.60;;;2.40;;
45686;SDS011;31399;51.176;7.776;2022-07-10T14:51:54;2.22;;;2.03;;
45686;SDS011;31399;51.176;7.776;2022-07-10T14:54:21;2.47;;;2.08;;
45686;SDS011;31399;51.176;7.776;2022-07-10T14:56:48;2.40;;;2.17;;
45686;SDS011;31399;51.176;7.776;2022-07-10T14:59:14;2.60;;;2.33;;
45686;SDS011;31399;51.176;7.776;2022-07-10T15:01:41;2.17;;;1.88;;
45686;SDS011;31399;51.176;7.776;2022-07-10T15:04:08;2.53;;;1.83;;
45686;SDS011;31399;51.176;7.776;2022-07-10T15:06:35;2.08;;;1.67;;
45686;SDS011;31399;51.176;7.776;2022-07-10T15:09:02;3.17;;;2.15;;
45686;SDS011;31399;51.176;7.776;2022-07-10T15:11:30;3.25;;;2.47;;
45686;SDS011;31399;51.176;7.776;2022-07-10T15:13:57;2.00;;;1.80;;
45686;SDS011;31399;51.176;7.776;2022-07-10T15:16:26;2.15;;;1.80;;
45686;SDS011;31399;51.176;7.776;2022-07-10T15:18:54;2.55;;;1.95;;
45686;SDS011;31399;51.176;7.776;2022-07-10T15:21:21;2.40;;;1.65;;
45686;SDS011;31399;51.176;7.776;2022-07-10T15:23:48;1.83;;;1.20;;
45686;SDS011;31399;51.176;7.776;2022-07-10T15:26:15;1.73;;;1.30;;
45686;SDS011;31399;51.176;7.776;2022-07-10T15:28:43;1.27;;;1.15;;
45686;SDS011;31399;51.176;7.776;2022-07-10T15:31:10;2.63;;;1.20;;
45686;SDS011;31399;51.176;7.776;2022-07-10T15:33:37;0.95;;;0.70;;
45686;SDS011;31399;51.176;7.776;2022-07-10T15:36:10;1.70;;;1.10;;